sensor_id;sensor_type;location;lat;lon;timestamp;P1;durP1;ratioP1;P2;durP2;ratioP2
69754;SDS011;57023;52.218;5.158;2023-04-06T00:00:55;17.27;;;9.45;;
69754;SDS011;57023;52.218;5.158;2023-04-06T00:03:20;13.70;;;8.18;;
69754;SDS011;57023;52.218;5.158;2023-04-06T00:05:46;14.32;;;8.60;;
69754;SDS011;57023;52.218;5.158;2023-04-06T00:08:12;16.88;;;8.77;;
69754;SDS011;57023;52.218;5.158;2023-04-06T00:10:40;15.30;;;8.60;;
69754;SDS011;57023;52.218;5.158;2023-04-06T00:13:05;17.20;;;9.15;;
69754;SDS011;57023;52.218;5.158;2023-04-06T00:15:33;17.88;;;9.23;;
69754;SDS011;57023;52.218;5.158;2023-04-06T00:17:58;17.90;;;9.25;;
69754;SDS011;57023;52.218;5.158;2023-04-06T00:20:24;17.02;;;8.70;;
69754;SDS011;57023;52.218;5.158;2023-04-06T00:22:49;13.55;;;7.70;;
69754;SDS011;57023;52.218;5.158;2023-04-06T00:25:16;15.60;;;8.80;;
69754;SDS011;57023;52.218;5.158;2023-04-06T00:27:43;14.88;;;8.75;;
69754;SDS011;57023;52.218;5.158;2023-04-06T00:30:09;15.80;;;8.60;;
69754;SDS011;57023;52.218;5.158;2023-04-06T00:32:34;13.80;;;7.97;;
69754;SDS011;57023;52.218;5.158;2023-04-06T00:35:03;14.85;;;8.50;;
69754;SDS011;57023;52.218;5.158;2023-04-06T00:37:30;16.15;;;9.07;;
69754;SDS011;57023;52.218;5.158;2023-04-06T00:39:55;15.25;;;8.23;;
69754;SDS011;57023;52.218;5.158;2023-04-06T00:42:22;14.85;;;8.50;;
69754;SDS011;57023;52.218;5.158;2023-04-06T00:44:52;15.63;;;8.98;;
69754;SDS011;57023;52.218;5.158;2023-04-06T00:47:19;14.48;;;8.63;;
69754;SDS011;57023;52.218;5.158;2023-04-06T00:49:44;13.63;;;8.18;;
69754;SDS011;57023;52.218;5.158;2023-04-06T00:52:09;14.57;;;8.55;;
69754;SDS011;57023;52.218;5.158;2023-04-06T00:54:35;14.27;;;7.72;;
69754;SDS011;57023;52.218;5.158;2023-04-06T00:57:01;13.85;;;7.82;;
69754;SDS011;57023;52.218;5.158;2023-04-06T00:59:27;14.32;;;8.40;;
69754;SDS011;57023;52.218;5.158;2023-04-06T01:01:59;15.88;;;8.45;;
69754;SDS011;57023;52.218;5.158;2023-04-06T01:04:26;14.97;;;8.03;;
69754;SDS011;57023;52.218;5.158;2023-04-06T01:06:52;14.65;;;8.68;;
69754;SDS011;57023;52.218;5.158;2023-04-06T01:09:17;15.60;;;8.13;;
69754;SDS011;57023;52.218;5.158;2023-04-06T01:11:42;13.05;;;7.50;;
69754;SDS011;57023;52.218;5.158;2023-04-06T01:14:08;15.55;;;8.32;;
69754;SDS011;57023;52.218;5.158;2023-04-06T01:16:34;14.25;;;7.55;;
69754;SDS011;57023;52.218;5.158;2023-04-06T01:18:59;13.82;;;7.88;;
69754;SDS011;57023;52.218;5.158;2023-04-06T01:21:25;13.55;;;7.70;;
69754;SDS011;57023;52.218;5.158;2023-04-06T01:23:50;14.35;;;7.35;;
69754;SDS011;57023;52.218;5.158;2023-04-06T01:26:17;12.88;;;7.28;;
69754;SDS011;57023;52.218;5.158;2023-04-06T01:28:42;14.70;;;7.80;;
69754;SDS011;57023;52.218;5.158;2023-04-06T01:31:09;14.45;;;7.97;;
69754;SDS011;57023;52.218;5.158;2023-04-06T01:33:35;13.63;;;7.55;;
69754;SDS011;57023;52.218;5.158;2023-04-06T01:36:01;15.50;;;7.70;;
69754;SDS011;57023;52.218;5.158;2023-04-06T01:38:26;13.75;;;7.60;;
69754;SDS011;57023;52.218;5.158;2023-04-06T01:40:52;12.93;;;7.55;;
69754;SDS011;57023;52.218;5.158;2023-04-06T01:43:18;13.60;;;7.72;;
69754;SDS011;57023;52.218;5.158;2023-04-06T01:45:43;13.93;;;7.32;;
69754;SDS011;57023;52.218;5.158;2023-04-06T01:48:09;13.63;;;7.57;;
69754;SDS011;57023;52.218;5.158;2023-04-06T01:50:34;13.48;;;7.50;;
69754;SDS011;57023;52.218;5.158;2023-04-06T01:52:59;13.68;;;7.57;;
69754;SDS011;57023;52.218;5.158;2023-04-06T01:55:25;15.90;;;8.02;;
69754;SDS011;57023;52.218;5.158;2023-04-06T01:57:50;13.07;;;7.43;;
69754;SDS011;57023;52.218;5.158;2023-04-06T02:00:16;12.43;;;7.70;;
69754;SDS011;57023;52.218;5.158;2023-04-06T02:02:41;12.40;;;7.55;;
69754;SDS011;57023;52.218;5.158;2023-04-06T02:05:07;13.05;;;7.70;;
69754;SDS011;57023;52.218;5.158;2023-04-06T02:07:33;12.85;;;7.93;;
69754;SDS011;57023;52.218;5.158;2023-04-06T02:09:58;11.15;;;6.63;;
69754;SDS011;57023;52.218;5.158;2023-04-06T02:12:26;13.70;;;7.47;;
69754;SDS011;57023;52.218;5.158;2023-04-06T02:14:52;12.70;;;7.60;;
69754;SDS011;57023;52.218;5.158;2023-04-06T02:17:17;13.10;;;7.80;;
69754;SDS011;57023;52.218;5.158;2023-04-06T02:19:42;13.88;;;7.53;;
69754;SDS011;57023;52.218;5.158;2023-04-06T02:22:08;12.25;;;7.40;;
69754;SDS011;57023;52.218;5.158;2023-04-06T02:24:34;12.80;;;7.60;;
69754;SDS011;57023;52.218;5.158;2023-04-06T02:27:01;12.15;;;6.97;;
69754;SDS011;57023;52.218;5.158;2023-04-06T02:29:26;14.35;;;7.53;;
69754;SDS011;57023;52.218;5.158;2023-04-06T02:31:52;13.05;;;7.80;;
69754;SDS011;57023;52.218;5.158;2023-04-06T02:34:17;15.10;;;7.85;;
69754;SDS011;57023;52.218;5.158;2023-04-06T02:36:44;13.18;;;7.97;;
69754;SDS011;57023;52.218;5.158;2023-04-06T02:39:09;12.30;;;7.17;;
69754;SDS011;57023;52.218;5.158;2023-04-06T02:41:35;12.40;;;7.25;;
69754;SDS011;57023;52.218;5.158;2023-04-06T02:44:01;14.13;;;7.90;;
69754;SDS011;57023;52.218;5.158;2023-04-06T02:46:26;12.65;;;7.50;;
69754;SDS011;57023;52.218;5.158;2023-04-06T02:48:51;11.32;;;7.10;;
69754;SDS011;57023;52.218;5.158;2023-04-06T02:51:20;12.38;;;7.32;;
69754;SDS011;57023;52.218;5.158;2023-04-06T02:53:45;14.32;;;7.90;;
69754;SDS011;57023;52.218;5.158;2023-04-06T02:56:11;12.82;;;7.60;;
69754;SDS011;57023;52.218;5.158;2023-04-06T02:58:39;12.27;;;7.47;;
69754;SDS011;57023;52.218;5.158;2023-04-06T03:01:04;13.98;;;7.60;;
69754;SDS011;57023;52.218;5.158;2023-04-06T03:03:30;12.98;;;7.80;;
69754;SDS011;57023;52.218;5.158;2023-04-06T03:05:55;12.70;;;7.85;;
69754;SDS011;57023;52.218;5.158;2023-04-06T03:08:23;14.93;;;8.43;;
69754;SDS011;57023;52.218;5.158;2023-04-06T03:10:50;13.48;;;7.43;;
69754;SDS011;57023;52.218;5.158;2023-04-06T03:13:16;14.20;;;8.50;;
69754;SDS011;57023;52.218;5.158;2023-04-06T03:15:42;16.60;;;8.27;;
69754;SDS011;57023;52.218;5.158;2023-04-06T03:18:07;14.50;;;8.25;;
69754;SDS011;57023;52.218;5.158;2023-04-06T03:20:32;15.23;;;9.35;;
69754;SDS011;57023;52.218;5.158;2023-04-06T03:22:58;14.68;;;8.80;;
69754;SDS011;57023;52.218;5.158;2023-04-06T03:25:23;16.25;;;8.75;;
69754;SDS011;57023;52.218;5.158;2023-04-06T03:27:49;15.35;;;8.88;;
69754;SDS011;57023;52.218;5.158;2023-04-06T03:30:14;14.70;;;8.45;;
69754;SDS011;57023;52.218;5.158;2023-04-06T03:32:42;15.95;;;8.82;;
69754;SDS011;57023;52.218;5.158;2023-04-06T03:35:07;15.10;;;8.75;;
69754;SDS011;57023;52.218;5.158;2023-04-06T03:37:33;15.82;;;9.00;;
69754;SDS011;57023;52.218;5.158;2023-04-06T03:39:58;14.52;;;8.75;;
69754;SDS011;57023;52.218;5.158;2023-04-06T03:42:24;17.23;;;9.38;;
69754;SDS011;57023;52.218;5.158;2023-04-06T03:44:49;17.80;;;8.98;;
69754;SDS011;57023;52.218;5.158;2023-04-06T03:47:15;17.13;;;9.35;;
69754;SDS011;57023;52.218;5.158;2023-04-06T03:49:40;16.48;;;9.45;;
69754;SDS011;57023;52.218;5.158;2023-04-06T03:52:05;14.90;;;8.75;;
69754;SDS011;57023;52.218;5.158;2023-04-06T03:54:31;17.15;;;9.85;;
69754;SDS011;57023;52.218;5.158;2023-04-06T03:56:56;17.38;;;9.18;;
69754;SDS011;57023;52.218;5.158;2023-04-06T03:59:21;16.80;;;9.50;;
69754;SDS011;57023;52.218;5.158;2023-04-06T04:01:47;17.02;;;9.48;;
69754;SDS011;57023;52.218;5.158;2023-04-06T04:04:12;18.58;;;9.60;;
69754;SDS011;57023;52.218;5.158;2023-04-06T04:06:37;18.33;;;10.15;;
69754;SDS011;57023;52.218;5.158;2023-04-06T04:09:03;16.48;;;9.43;;
69754;SDS011;57023;52.218;5.158;2023-04-06T04:11:28;16.45;;;9.07;;
69754;SDS011;57023;52.218;5.158;2023-04-06T04:13:53;16.02;;;9.40;;
69754;SDS011;57023;52.218;5.158;2023-04-06T04:16:19;18.63;;;10.13;;
69754;SDS011;57023;52.218;5.158;2023-04-06T04:18:44;18.75;;;10.13;;
69754;SDS011;57023;52.218;5.158;2023-04-06T04:21:12;19.15;;;10.30;;
69754;SDS011;57023;52.218;5.158;2023-04-06T04:23:37;16.98;;;9.70;;
69754;SDS011;57023;52.218;5.158;2023-04-06T04:26:02;19.75;;;10.55;;
69754;SDS011;57023;52.218;5.158;2023-04-06T04:28:43;18.00;;;10.23;;
69754;SDS011;57023;52.218;5.158;2023-04-06T04:31:08;20.75;;;10.13;;
69754;SDS011;57023;52.218;5.158;2023-04-06T04:33:36;22.02;;;9.98;;
69754;SDS011;57023;52.218;5.158;2023-04-06T04:36:05;19.15;;;11.07;;
69754;SDS011;57023;52.218;5.158;2023-04-06T04:38:33;17.92;;;10.18;;
69754;SDS011;57023;52.218;5.158;2023-04-06T04:40:58;21.35;;;12.18;;
69754;SDS011;57023;52.218;5.158;2023-04-06T04:43:24;20.58;;;11.35;;
69754;SDS011;57023;52.218;5.158;2023-04-06T04:45:49;21.02;;;10.90;;
69754;SDS011;57023;52.218;5.158;2023-04-06T04:48:14;17.05;;;9.68;;
69754;SDS011;57023;52.218;5.158;2023-04-06T04:50:40;17.88;;;10.35;;
69754;SDS011;57023;52.218;5.158;2023-04-06T04:53:05;18.83;;;9.93;;
69754;SDS011;57023;52.218;5.158;2023-04-06T04:55:31;19.45;;;10.18;;
69754;SDS011;57023;52.218;5.158;2023-04-06T04:57:57;18.13;;;9.90;;
69754;SDS011;57023;52.218;5.158;2023-04-06T05:00:25;19.38;;;10.25;;
69754;SDS011;57023;52.218;5.158;2023-04-06T05:02:51;20.65;;;11.20;;
69754;SDS011;57023;52.218;5.158;2023-04-06T05:05:19;19.60;;;11.48;;
69754;SDS011;57023;52.218;5.158;2023-04-06T05:07:44;18.63;;;10.38;;
69754;SDS011;57023;52.218;5.158;2023-04-06T05:10:12;21.30;;;10.50;;
69754;SDS011;57023;52.218;5.158;2023-04-06T05:12:38;21.92;;;10.57;;
69754;SDS011;57023;52.218;5.158;2023-04-06T05:15:03;19.38;;;10.70;;
69754;SDS011;57023;52.218;5.158;2023-04-06T05:17:29;18.30;;;10.48;;
69754;SDS011;57023;52.218;5.158;2023-04-06T05:19:54;19.08;;;11.05;;
69754;SDS011;57023;52.218;5.158;2023-04-06T05:22:20;18.50;;;9.98;;
69754;SDS011;57023;52.218;5.158;2023-04-06T05:24:45;19.15;;;10.77;;
69754;SDS011;57023;52.218;5.158;2023-04-06T05:27:10;19.25;;;10.73;;
69754;SDS011;57023;52.218;5.158;2023-04-06T05:29:36;20.33;;;10.60;;
69754;SDS011;57023;52.218;5.158;2023-04-06T05:32:01;21.50;;;11.15;;
69754;SDS011;57023;52.218;5.158;2023-04-06T05:34:27;18.98;;;10.88;;
69754;SDS011;57023;52.218;5.158;2023-04-06T05:36:52;21.80;;;10.80;;
69754;SDS011;57023;52.218;5.158;2023-04-06T05:39:17;21.40;;;11.02;;
69754;SDS011;57023;52.218;5.158;2023-04-06T05:41:43;18.13;;;10.38;;
69754;SDS011;57023;52.218;5.158;2023-04-06T05:44:08;20.15;;;11.52;;
69754;SDS011;57023;52.218;5.158;2023-04-06T05:46:34;20.25;;;11.05;;
69754;SDS011;57023;52.218;5.158;2023-04-06T05:48:59;17.77;;;10.13;;
69754;SDS011;57023;52.218;5.158;2023-04-06T05:51:34;19.13;;;11.02;;
69754;SDS011;57023;52.218;5.158;2023-04-06T05:53:59;20.23;;;10.90;;
69754;SDS011;57023;52.218;5.158;2023-04-06T05:56:24;21.38;;;11.20;;
69754;SDS011;57023;52.218;5.158;2023-04-06T05:58:50;21.25;;;11.85;;
69754;SDS011;57023;52.218;5.158;2023-04-06T06:01:15;20.85;;;11.30;;
69754;SDS011;57023;52.218;5.158;2023-04-06T06:03:41;22.35;;;11.25;;
69754;SDS011;57023;52.218;5.158;2023-04-06T06:06:09;19.27;;;10.23;;
69754;SDS011;57023;52.218;5.158;2023-04-06T06:08:34;21.50;;;11.13;;
69754;SDS011;57023;52.218;5.158;2023-04-06T06:10:59;20.95;;;11.35;;
69754;SDS011;57023;52.218;5.158;2023-04-06T06:13:25;20.70;;;11.30;;
69754;SDS011;57023;52.218;5.158;2023-04-06T06:15:50;22.90;;;11.32;;
69754;SDS011;57023;52.218;5.158;2023-04-06T06:18:15;21.63;;;11.93;;
69754;SDS011;57023;52.218;5.158;2023-04-06T06:20:41;20.42;;;11.43;;
69754;SDS011;57023;52.218;5.158;2023-04-06T06:23:06;19.42;;;11.18;;
69754;SDS011;57023;52.218;5.158;2023-04-06T06:25:32;22.02;;;11.60;;
69754;SDS011;57023;52.218;5.158;2023-04-06T06:27:57;25.40;;;12.32;;
69754;SDS011;57023;52.218;5.158;2023-04-06T06:30:26;21.90;;;11.82;;
69754;SDS011;57023;52.218;5.158;2023-04-06T06:32:51;27.42;;;11.70;;
69754;SDS011;57023;52.218;5.158;2023-04-06T06:35:19;19.83;;;11.30;;
69754;SDS011;57023;52.218;5.158;2023-04-06T06:37:47;22.00;;;12.10;;
69754;SDS011;57023;52.218;5.158;2023-04-06T06:40:15;20.85;;;11.52;;
69754;SDS011;57023;52.218;5.158;2023-04-06T06:42:42;24.23;;;12.07;;
69754;SDS011;57023;52.218;5.158;2023-04-06T06:45:08;24.23;;;11.70;;
69754;SDS011;57023;52.218;5.158;2023-04-06T06:47:34;24.08;;;12.02;;
69754;SDS011;57023;52.218;5.158;2023-04-06T06:49:59;21.77;;;12.38;;
69754;SDS011;57023;52.218;5.158;2023-04-06T06:52:28;22.50;;;12.73;;
69754;SDS011;57023;52.218;5.158;2023-04-06T06:54:54;21.48;;;12.43;;
69754;SDS011;57023;52.218;5.158;2023-04-06T06:57:21;22.42;;;12.23;;
69754;SDS011;57023;52.218;5.158;2023-04-06T06:59:46;21.92;;;12.48;;
69754;SDS011;57023;52.218;5.158;2023-04-06T07:02:11;24.52;;;13.05;;
69754;SDS011;57023;52.218;5.158;2023-04-06T07:04:37;24.25;;;12.65;;
69754;SDS011;57023;52.218;5.158;2023-04-06T07:07:02;25.08;;;14.25;;
69754;SDS011;57023;52.218;5.158;2023-04-06T07:09:28;22.70;;;13.00;;
69754;SDS011;57023;52.218;5.158;2023-04-06T07:11:53;22.95;;;12.68;;
69754;SDS011;57023;52.218;5.158;2023-04-06T07:14:21;21.20;;;13.18;;
69754;SDS011;57023;52.218;5.158;2023-04-06T07:16:47;24.13;;;13.30;;
69754;SDS011;57023;52.218;5.158;2023-04-06T07:19:15;24.33;;;13.23;;
69754;SDS011;57023;52.218;5.158;2023-04-06T07:21:40;27.05;;;13.38;;
69754;SDS011;57023;52.218;5.158;2023-04-06T07:24:05;23.35;;;12.80;;
69754;SDS011;57023;52.218;5.158;2023-04-06T07:26:31;24.17;;;12.95;;
69754;SDS011;57023;52.218;5.158;2023-04-06T07:28:56;23.85;;;13.00;;
69754;SDS011;57023;52.218;5.158;2023-04-06T07:31:21;26.55;;;13.38;;
69754;SDS011;57023;52.218;5.158;2023-04-06T07:33:47;19.73;;;11.50;;
69754;SDS011;57023;52.218;5.158;2023-04-06T07:36:12;24.60;;;14.73;;
69754;SDS011;57023;52.218;5.158;2023-04-06T07:38:37;24.10;;;12.93;;
69754;SDS011;57023;52.218;5.158;2023-04-06T07:41:03;22.85;;;13.70;;
69754;SDS011;57023;52.218;5.158;2023-04-06T07:43:29;24.15;;;13.77;;
69754;SDS011;57023;52.218;5.158;2023-04-06T07:45:55;22.75;;;13.75;;
69754;SDS011;57023;52.218;5.158;2023-04-06T07:48:22;24.63;;;13.77;;
69754;SDS011;57023;52.218;5.158;2023-04-06T07:50:47;23.27;;;13.50;;
69754;SDS011;57023;52.218;5.158;2023-04-06T07:53:12;25.65;;;12.80;;
69754;SDS011;57023;52.218;5.158;2023-04-06T07:55:38;25.42;;;14.23;;
69754;SDS011;57023;52.218;5.158;2023-04-06T07:58:03;27.58;;;15.05;;
69754;SDS011;57023;52.218;5.158;2023-04-06T08:00:32;24.52;;;14.05;;
69754;SDS011;57023;52.218;5.158;2023-04-06T08:02:57;23.33;;;13.77;;
69754;SDS011;57023;52.218;5.158;2023-04-06T08:05:22;24.92;;;13.95;;
69754;SDS011;57023;52.218;5.158;2023-04-06T08:07:48;26.77;;;14.57;;
69754;SDS011;57023;52.218;5.158;2023-04-06T08:10:13;25.48;;;14.30;;
69754;SDS011;57023;52.218;5.158;2023-04-06T08:12:38;22.50;;;12.57;;
69754;SDS011;57023;52.218;5.158;2023-04-06T08:15:04;29.95;;;15.27;;
69754;SDS011;57023;52.218;5.158;2023-04-06T08:17:31;25.27;;;14.63;;
69754;SDS011;57023;52.218;5.158;2023-04-06T08:19:56;24.97;;;15.30;;
69754;SDS011;57023;52.218;5.158;2023-04-06T08:22:22;29.90;;;16.20;;
69754;SDS011;57023;52.218;5.158;2023-04-06T08:24:47;25.77;;;16.05;;
69754;SDS011;57023;52.218;5.158;2023-04-06T08:27:13;26.30;;;15.25;;
69754;SDS011;57023;52.218;5.158;2023-04-06T08:29:39;27.17;;;15.93;;
69754;SDS011;57023;52.218;5.158;2023-04-06T08:32:05;24.83;;;14.98;;
69754;SDS011;57023;52.218;5.158;2023-04-06T08:34:32;27.85;;;15.55;;
69754;SDS011;57023;52.218;5.158;2023-04-06T08:36:57;26.70;;;13.83;;
69754;SDS011;57023;52.218;5.158;2023-04-06T08:39:23;26.25;;;14.70;;
69754;SDS011;57023;52.218;5.158;2023-04-06T08:41:50;26.63;;;15.70;;
69754;SDS011;57023;52.218;5.158;2023-04-06T08:44:17;26.55;;;15.35;;
69754;SDS011;57023;52.218;5.158;2023-04-06T08:46:43;24.10;;;14.88;;
69754;SDS011;57023;52.218;5.158;2023-04-06T08:49:08;25.50;;;14.68;;
69754;SDS011;57023;52.218;5.158;2023-04-06T08:51:34;26.13;;;15.38;;
69754;SDS011;57023;52.218;5.158;2023-04-06T08:53:59;24.17;;;14.93;;
69754;SDS011;57023;52.218;5.158;2023-04-06T08:56:31;26.20;;;15.57;;
69754;SDS011;57023;52.218;5.158;2023-04-06T08:58:56;27.02;;;15.65;;
69754;SDS011;57023;52.218;5.158;2023-04-06T09:01:28;27.98;;;15.27;;
69754;SDS011;57023;52.218;5.158;2023-04-06T09:03:55;24.95;;;15.27;;
69754;SDS011;57023;52.218;5.158;2023-04-06T09:06:23;26.58;;;15.77;;
69754;SDS011;57023;52.218;5.158;2023-04-06T09:08:48;27.75;;;14.35;;
69754;SDS011;57023;52.218;5.158;2023-04-06T09:11:14;23.85;;;12.63;;
69754;SDS011;57023;52.218;5.158;2023-04-06T09:16:11;25.80;;;15.48;;
69754;SDS011;57023;52.218;5.158;2023-04-06T09:18:36;29.17;;;15.52;;
69754;SDS011;57023;52.218;5.158;2023-04-06T09:21:05;25.77;;;15.00;;
69754;SDS011;57023;52.218;5.158;2023-04-06T09:23:31;26.13;;;15.93;;
69754;SDS011;57023;52.218;5.158;2023-04-06T09:28:53;29.95;;;14.55;;
69754;SDS011;57023;52.218;5.158;2023-04-06T09:32:01;27.25;;;16.50;;
69754;SDS011;57023;52.218;5.158;2023-04-06T09:34:19;28.48;;;16.00;;
69754;SDS011;57023;52.218;5.158;2023-04-06T09:36:46;23.45;;;11.82;;
69754;SDS011;57023;52.218;5.158;2023-04-06T09:39:12;27.52;;;15.65;;
69754;SDS011;57023;52.218;5.158;2023-04-06T09:41:37;27.70;;;16.17;;
69754;SDS011;57023;52.218;5.158;2023-04-06T09:44:05;28.30;;;16.40;;
69754;SDS011;57023;52.218;5.158;2023-04-06T09:46:38;29.30;;;17.55;;
69754;SDS011;57023;52.218;5.158;2023-04-06T09:49:04;30.45;;;17.05;;
69754;SDS011;57023;52.218;5.158;2023-04-06T09:51:46;31.05;;;16.40;;
69754;SDS011;57023;52.218;5.158;2023-04-06T09:54:18;31.90;;;17.17;;
69754;SDS011;57023;52.218;5.158;2023-04-06T09:59:12;25.77;;;14.37;;
69754;SDS011;57023;52.218;5.158;2023-04-06T10:01:42;29.45;;;16.08;;
69754;SDS011;57023;52.218;5.158;2023-04-06T10:06:33;32.58;;;17.20;;
69754;SDS011;57023;52.218;5.158;2023-04-06T10:09:00;27.15;;;14.63;;
69754;SDS011;57023;52.218;5.158;2023-04-06T10:11:27;27.08;;;16.60;;
69754;SDS011;57023;52.218;5.158;2023-04-06T10:13:53;27.17;;;16.70;;
69754;SDS011;57023;52.218;5.158;2023-04-06T10:16:19;26.25;;;14.48;;
69754;SDS011;57023;52.218;5.158;2023-04-06T10:18:50;28.98;;;15.77;;
69754;SDS011;57023;52.218;5.158;2023-04-06T10:21:19;30.85;;;15.98;;
69754;SDS011;57023;52.218;5.158;2023-04-06T10:23:50;25.58;;;15.48;;
69754;SDS011;57023;52.218;5.158;2023-04-06T10:26:21;29.05;;;16.08;;
69754;SDS011;57023;52.218;5.158;2023-04-06T10:28:47;26.33;;;15.70;;
69754;SDS011;57023;52.218;5.158;2023-04-06T10:31:13;24.60;;;13.85;;
69754;SDS011;57023;52.218;5.158;2023-04-06T10:33:38;29.38;;;15.15;;
69754;SDS011;57023;52.218;5.158;2023-04-06T10:36:12;23.48;;;12.95;;
69754;SDS011;57023;52.218;5.158;2023-04-06T10:38:38;20.00;;;11.43;;
69754;SDS011;57023;52.218;5.158;2023-04-06T10:41:05;19.13;;;11.60;;
69754;SDS011;57023;52.218;5.158;2023-04-06T10:43:36;18.33;;;10.30;;
69754;SDS011;57023;52.218;5.158;2023-04-06T10:46:02;21.25;;;11.10;;
69754;SDS011;57023;52.218;5.158;2023-04-06T10:48:36;15.80;;;8.65;;
69754;SDS011;57023;52.218;5.158;2023-04-06T10:51:12;15.57;;;9.07;;
69754;SDS011;57023;52.218;5.158;2023-04-06T10:53:38;16.23;;;9.32;;
69754;SDS011;57023;52.218;5.158;2023-04-06T10:56:09;13.57;;;8.27;;
69754;SDS011;57023;52.218;5.158;2023-04-06T10:58:36;13.10;;;7.93;;
69754;SDS011;57023;52.218;5.158;2023-04-06T11:01:01;12.38;;;7.22;;
69754;SDS011;57023;52.218;5.158;2023-04-06T11:03:27;11.35;;;6.70;;
69754;SDS011;57023;52.218;5.158;2023-04-06T11:05:52;12.75;;;7.40;;
69754;SDS011;57023;52.218;5.158;2023-04-06T11:08:31;11.10;;;6.85;;
69754;SDS011;57023;52.218;5.158;2023-04-06T11:11:03;12.48;;;7.10;;
69754;SDS011;57023;52.218;5.158;2023-04-06T11:13:42;12.65;;;7.68;;
69754;SDS011;57023;52.218;5.158;2023-04-06T11:16:15;10.27;;;5.85;;
69754;SDS011;57023;52.218;5.158;2023-04-06T11:18:48;11.23;;;6.93;;
69754;SDS011;57023;52.218;5.158;2023-04-06T11:21:20;13.32;;;7.05;;
69754;SDS011;57023;52.218;5.158;2023-04-06T11:24:04;14.75;;;7.50;;
69754;SDS011;57023;52.218;5.158;2023-04-06T11:26:29;12.50;;;7.18;;
69754;SDS011;57023;52.218;5.158;2023-04-06T11:28:55;12.38;;;7.15;;
69754;SDS011;57023;52.218;5.158;2023-04-06T11:31:20;12.50;;;7.45;;
69754;SDS011;57023;52.218;5.158;2023-04-06T11:33:55;11.18;;;6.40;;
69754;SDS011;57023;52.218;5.158;2023-04-06T11:36:21;8.60;;;5.20;;
69754;SDS011;57023;52.218;5.158;2023-04-06T11:38:46;11.00;;;6.80;;
69754;SDS011;57023;52.218;5.158;2023-04-06T11:41:12;12.90;;;7.15;;
69754;SDS011;57023;52.218;5.158;2023-04-06T11:43:37;11.57;;;6.53;;
69754;SDS011;57023;52.218;5.158;2023-04-06T11:46:03;10.65;;;6.88;;
69754;SDS011;57023;52.218;5.158;2023-04-06T11:48:29;11.15;;;6.20;;
69754;SDS011;57023;52.218;5.158;2023-04-06T11:50:55;11.52;;;6.38;;
69754;SDS011;57023;52.218;5.158;2023-04-06T11:53:22;11.32;;;6.80;;
69754;SDS011;57023;52.218;5.158;2023-04-06T11:55:47;13.25;;;7.70;;
69754;SDS011;57023;52.218;5.158;2023-04-06T11:58:12;9.95;;;5.95;;
69754;SDS011;57023;52.218;5.158;2023-04-06T12:00:38;10.93;;;6.50;;
69754;SDS011;57023;52.218;5.158;2023-04-06T12:03:03;10.95;;;6.57;;
69754;SDS011;57023;52.218;5.158;2023-04-06T12:05:29;10.88;;;6.55;;
69754;SDS011;57023;52.218;5.158;2023-04-06T12:07:54;13.48;;;6.93;;
69754;SDS011;57023;52.218;5.158;2023-04-06T12:10:22;11.15;;;7.03;;
69754;SDS011;57023;52.218;5.158;2023-04-06T12:12:48;11.32;;;7.20;;
69754;SDS011;57023;52.218;5.158;2023-04-06T12:15:13;12.75;;;6.88;;
69754;SDS011;57023;52.218;5.158;2023-04-06T12:17:38;12.15;;;6.28;;
69754;SDS011;57023;52.218;5.158;2023-04-06T12:20:04;12.57;;;6.95;;
69754;SDS011;57023;52.218;5.158;2023-04-06T12:22:30;11.68;;;7.00;;
69754;SDS011;57023;52.218;5.158;2023-04-06T12:24:55;11.23;;;6.40;;
69754;SDS011;57023;52.218;5.158;2023-04-06T12:27:20;13.77;;;7.57;;
69754;SDS011;57023;52.218;5.158;2023-04-06T12:29:46;12.70;;;7.82;;
69754;SDS011;57023;52.218;5.158;2023-04-06T12:32:12;12.75;;;7.50;;
69754;SDS011;57023;52.218;5.158;2023-04-06T12:34:37;13.25;;;7.80;;
69754;SDS011;57023;52.218;5.158;2023-04-06T12:37:03;12.75;;;7.68;;
69754;SDS011;57023;52.218;5.158;2023-04-06T12:39:28;13.15;;;7.85;;
69754;SDS011;57023;52.218;5.158;2023-04-06T12:41:54;13.55;;;8.98;;
69754;SDS011;57023;52.218;5.158;2023-04-06T12:44:20;15.65;;;8.40;;
69754;SDS011;57023;52.218;5.158;2023-04-06T12:46:48;29.10;;;8.95;;
69754;SDS011;57023;52.218;5.158;2023-04-06T12:49:13;14.30;;;9.02;;
69754;SDS011;57023;52.218;5.158;2023-04-06T12:51:41;17.92;;;9.38;;
69754;SDS011;57023;52.218;5.158;2023-04-06T12:54:07;13.85;;;8.25;;
69754;SDS011;57023;52.218;5.158;2023-04-06T12:56:32;15.32;;;9.63;;
69754;SDS011;57023;52.218;5.158;2023-04-06T12:58:57;17.50;;;9.60;;
69754;SDS011;57023;52.218;5.158;2023-04-06T13:01:22;16.73;;;9.52;;
69754;SDS011;57023;52.218;5.158;2023-04-06T13:03:48;15.32;;;9.73;;
69754;SDS011;57023;52.218;5.158;2023-04-06T13:06:19;17.95;;;10.20;;
69754;SDS011;57023;52.218;5.158;2023-04-06T13:08:45;16.33;;;9.52;;
69754;SDS011;57023;52.218;5.158;2023-04-06T13:11:12;14.32;;;8.82;;
69754;SDS011;57023;52.218;5.158;2023-04-06T13:13:37;17.17;;;10.02;;
69754;SDS011;57023;52.218;5.158;2023-04-06T13:16:03;17.63;;;9.90;;
69754;SDS011;57023;52.218;5.158;2023-04-06T13:18:30;20.02;;;10.27;;
69754;SDS011;57023;52.218;5.158;2023-04-06T13:20:57;20.40;;;10.57;;
69754;SDS011;57023;52.218;5.158;2023-04-06T13:23:24;16.20;;;10.52;;
69754;SDS011;57023;52.218;5.158;2023-04-06T13:28:25;16.95;;;10.38;;
69754;SDS011;57023;52.218;5.158;2023-04-06T13:30:51;17.77;;;11.15;;
69754;SDS011;57023;52.218;5.158;2023-04-06T13:33:16;18.90;;;10.25;;
69754;SDS011;57023;52.218;5.158;2023-04-06T13:35:44;19.48;;;10.70;;
69754;SDS011;57023;52.218;5.158;2023-04-06T13:38:10;19.27;;;10.85;;
69754;SDS011;57023;52.218;5.158;2023-04-06T13:40:38;18.55;;;11.18;;
69754;SDS011;57023;52.218;5.158;2023-04-06T13:43:04;17.35;;;10.95;;
69754;SDS011;57023;52.218;5.158;2023-04-06T13:45:30;18.83;;;11.52;;
69754;SDS011;57023;52.218;5.158;2023-04-06T13:48:01;18.52;;;10.95;;
69754;SDS011;57023;52.218;5.158;2023-04-06T13:50:30;20.50;;;11.77;;
69754;SDS011;57023;52.218;5.158;2023-04-06T13:52:55;19.65;;;12.10;;
69754;SDS011;57023;52.218;5.158;2023-04-06T13:55:21;18.73;;;10.38;;
69754;SDS011;57023;52.218;5.158;2023-04-06T13:57:49;18.80;;;11.55;;
69754;SDS011;57023;52.218;5.158;2023-04-06T14:00:14;19.50;;;11.88;;
69754;SDS011;57023;52.218;5.158;2023-04-06T14:02:40;19.85;;;11.68;;
69754;SDS011;57023;52.218;5.158;2023-04-06T14:05:05;19.52;;;11.88;;
69754;SDS011;57023;52.218;5.158;2023-04-06T14:07:34;19.35;;;11.85;;
69754;SDS011;57023;52.218;5.158;2023-04-06T14:10:02;20.40;;;11.93;;
69754;SDS011;57023;52.218;5.158;2023-04-06T14:12:31;21.10;;;12.25;;
69754;SDS011;57023;52.218;5.158;2023-04-06T14:14:56;19.42;;;11.75;;
69754;SDS011;57023;52.218;5.158;2023-04-06T14:17:21;19.52;;;11.77;;
69754;SDS011;57023;52.218;5.158;2023-04-06T14:19:47;21.42;;;12.27;;
69754;SDS011;57023;52.218;5.158;2023-04-06T14:22:13;18.63;;;10.80;;
69754;SDS011;57023;52.218;5.158;2023-04-06T14:24:39;16.40;;;10.18;;
69754;SDS011;57023;52.218;5.158;2023-04-06T14:27:04;18.88;;;12.00;;
69754;SDS011;57023;52.218;5.158;2023-04-06T14:29:30;18.77;;;10.45;;
69754;SDS011;57023;52.218;5.158;2023-04-06T14:31:55;18.88;;;11.00;;
69754;SDS011;57023;52.218;5.158;2023-04-06T14:34:25;20.27;;;11.95;;
69754;SDS011;57023;52.218;5.158;2023-04-06T14:36:51;20.10;;;11.53;;